Time;durP1;ratioP1;P1;durP2;ratioP2;P2;SDS_P1;SDS_P2;PMS_P1;PMS_P2;Temp;Humidity;BMP_temperature;BMP_pressure;BME280_temperature;BME280_humidity;BME280_pressure;Samples;Min_cycle;Max_cycle;Signal;HPM_P1;HPM_P2
2023/01/14 00:01:05;;;;;;;29.55;16.77;;;11.80;88.50;;;;;;6369520;22;20026;-76
2023/01/14 00:03:31;;;;;;;;;;;11.80;87.80;;;;;;6370105;22;20395;-75
2023/01/14 00:05:58;;;;;;;31.65;17.17;;;11.80;88.50;;;;;;6341324;22;19898;-76
2023/01/14 00:08:25;;;;;;;28.80;16.60;;;11.70;88.30;;;;;;6369930;22;20065;-75
2023/01/14 00:10:51;;;;;;;26.20;16.05;;;11.70;88.50;;;;;;6341678;22;20003;-77
2023/01/14 00:13:17;;;;;;;24.45;16.02;;;11.70;88.60;;;;;;6370507;22;20010;-77
2023/01/14 00:15:51;;;;;;;32.97;16.52;;;11.70;88.50;;;;;;6370542;22;20047;-76
2023/01/14 01:09:00;;;;;;;25.27;16.00;;;11.40;88.90;;;;;;6364093;22;20030;-76
2023/01/14 01:11:27;;;;;;;30.17;17.35;;;11.30;89.10;;;;;;6342986;22;20014;-75
2023/01/14 01:13:55;;;;;;;33.65;16.98;;;11.30;89.30;;;;;;6343147;22;20025;-76
2023/01/14 01:16:23;;;;;;;31.83;17.25;;;11.30;89.60;;;;;;6371273;22;20002;-75
2023/01/14 01:18:50;;;;;;;26.17;15.73;;;11.30;89.50;;;;;;6342654;22;20074;-77
2023/01/14 01:21:17;;;;;;;26.73;16.00;;;11.20;89.60;;;;;;6371051;22;20005;-76
2023/01/14 01:23:44;;;;;;;28.92;16.25;;;11.20;89.80;;;;;;6371089;22;19999;-77
2023/01/14 01:26:24;;;;;;;30.27;15.40;;;11.20;89.60;;;;;;6371567;22;19998;-75
2023/01/14 01:28:52;;;;;;;25.40;15.48;;;11.20;89.80;;;;;;6343172;22;20449;-76
2023/01/14 01:31:19;;;;;;;30.80;16.52;;;11.20;90.20;;;;;;6342483;22;20002;-77
2023/01/14 01:33:45;;;;;;;26.98;16.85;;;11.20;89.80;;;;;;6370306;22;20011;-77
2023/01/14 01:36:14;;;;;;;29.95;16.80;;;11.10;89.80;;;;;;6342976;22;20079;-75
2023/01/14 01:38:40;;;;;;;27.52;15.80;;;11.10;89.80;;;;;;6342746;22;20006;-76
2023/01/14 01:41:06;;;;;;;25.73;15.63;;;11.10;90.00;;;;;;6342516;22;20009;-75
2023/01/14 01:43:33;;;;;;;28.25;15.70;;;11.10;90.30;;;;;;6342653;22;20359;-76
2023/01/14 01:46:00;;;;;;;25.83;16.70;;;11.00;89.90;;;;;;6342549;22;20088;-75
2023/01/14 01:48:40;;;;;;;27.45;16.30;;;11.00;90.30;;;;;;6342512;22;20456;-75
2023/01/14 01:51:14;;;;;;;29.55;17.23;;;11.00;90.00;;;;;;6370461;22;20006;-76
2023/01/14 01:53:43;;;;;;;29.55;16.83;;;10.90;90.10;;;;;;6370509;22;20446;-76
2023/01/14 01:56:14;;;;;;;25.00;16.25;;;10.90;90.00;;;;;;6342602;22;20007;-77
2023/01/14 01:58:40;;;;;;;26.67;16.10;;;10.90;90.00;;;;;;6342784;22;20044;-75
2023/01/14 02:01:06;;;;;;;26.77;16.42;;;10.80;90.10;;;;;;6370491;22;19998;-75
2023/01/14 02:03:38;;;;;;;27.40;16.30;;;10.80;90.10;;;;;;6370294;22;20084;-75
2023/01/14 02:06:05;;;;;;;22.33;15.80;;;10.80;90.10;;;;;;6370561;22;20005;-76
2023/01/14 02:08:32;;;;;;;25.73;16.63;;;10.70;90.10;;;;;;6342236;22;20025;-75
2023/01/14 02:10:58;;;;;;;24.80;15.65;;;10.70;90.10;;;;;;6370204;22;19999;-74
2023/01/14 02:13:31;;;;;;;26.67;15.60;;;10.70;90.20;;;;;;6370246;22;20010;-76
2023/01/14 02:16:15;;;;;;;24.02;15.98;;;10.60;90.20;;;;;;6342508;22;20054;-75
2023/01/14 02:18:47;;;;;;;26.83;14.75;;;10.60;90.30;;;;;;6370411;22;20101;-76
2023/01/14 02:21:28;;;;;;;27.00;15.70;;;10.60;90.10;;;;;;6370000;22;20431;-75
2023/01/14 02:24:13;;;;;;;21.67;14.57;;;10.50;90.20;;;;;;6370438;22;20008;-75
2023/01/14 02:27:10;;;;;;;23.70;14.73;;;10.40;90.30;;;;;;6370097;22;20005;-75
2023/01/14 02:30:15;;;;;;;27.75;15.10;;;10.40;90.20;;;;;;6297106;22;20024;-75
2023/01/14 02:32:51;;;;;;;26.95;14.68;;;10.40;90.40;;;;;;6366623;22;20019;-75
2023/01/14 02:35:37;;;;;;;26.70;14.77;;;10.40;90.30;;;;;;6370549;22;19999;-75
2023/01/14 02:38:22;;;;;;;24.65;14.45;;;10.30;90.40;;;;;;6342060;22;20010;-75
2023/01/14 02:41:19;;;;;;;24.75;14.55;;;10.30;90.30;;;;;;6370112;22;19998;-75
2023/01/14 02:44:07;;;;;;;22.10;13.82;;;10.20;90.40;;;;;;6279622;22;20010;-76
2023/01/14 02:46:53;;;;;;;27.58;14.13;;;10.20;90.30;;;;;;6342207;22;20030;-75
2023/01/14 02:49:32;;;;;;;25.52;13.88;;;10.20;90.30;;;;;;6341842;22;20056;-75
2023/01/14 02:51:59;;;;;;;22.23;12.75;;;10.20;90.60;;;;;;6369854;22;20021;-75
2023/01/14 02:54:25;;;;;;;21.67;13.38;;;10.20;90.60;;;;;;6342043;22;20002;-75
2023/01/14 02:56:54;;;;;;;23.77;13.35;;;10.20;90.50;;;;;;6342109;22;20014;-75
2023/01/14 02:59:52;;;;;;;23.85;13.93;;;10.20;90.60;;;;;;6370227;22;19998;-76
2023/01/14 03:02:18;;;;;;;21.40;12.82;;;10.20;90.40;;;;;;6370168;22;19998;-74
2023/01/14 03:05:08;;;;;;;20.52;12.30;;;10.20;90.60;;;;;;6369898;22;20023;-75
2023/01/14 03:07:55;;;;;;;19.73;12.23;;;10.20;90.70;;;;;;6369992;22;20044;-77
2023/01/14 03:10:29;;;;;;;19.92;12.10;;;10.20;90.50;;;;;;6369724;22;20002;-76
2023/01/14 03:12:55;;;;;;;23.15;12.25;;;10.20;90.60;;;;;;6369670;22;20014;-75
2023/01/14 03:15:24;;;;;;;25.10;11.88;;;10.20;90.80;;;;;;6342410;22;20152;-76
2023/01/14 03:18:25;;;;;;;26.30;13.07;;;10.30;90.70;;;;;;6369598;22;20022;-76
2023/01/14 03:21:04;;;;;;;26.25;13.40;;;10.30;90.60;;;;;;6348871;22;20486;-76
2023/01/14 03:23:34;;;;;;;21.83;12.35;;;10.20;90.80;;;;;;6342220;22;20033;-78
2023/01/14 03:26:02;;;;;;;21.30;12.85;;;10.20;90.80;;;;;;6369600;22;20337;-77
2023/01/14 03:28:34;;;;;;;24.20;12.25;;;10.20;90.80;;;;;;6369733;22;20075;-75
2023/01/14 03:31:06;;;;;;;16.85;11.55;;;10.20;90.90;;;;;;6369902;22;20002;-77
2023/01/14 03:33:40;;;;;;;23.88;13.77;;;10.20;90.90;;;;;;6369738;22;20061;-75
2023/01/14 03:36:07;;;;;;;19.98;12.70;;;10.20;90.90;;;;;;6369570;22;20022;-75
2023/01/14 03:38:35;;;;;;;21.55;13.02;;;10.20;90.90;;;;;;6342080;22;20324;-77
2023/01/14 03:41:01;;;;;;;24.48;13.45;;;10.20;91.00;;;;;;6341888;22;20085;-76
2023/01/14 03:43:45;;;;;;;23.15;12.40;;;10.20;91.30;;;;;;6341901;22;19998;-76
2023/01/14 03:46:11;;;;;;;26.70;13.68;;;10.10;90.70;;;;;;6369605;22;19995;-77
2023/01/14 03:48:37;;;;;;;20.52;12.77;;;10.10;90.90;;;;;;6369447;22;20006;-76
2023/01/14 03:51:24;;;;;;;23.55;13.57;;;10.10;91.00;;;;;;6369688;22;19999;-76
2023/01/14 03:53:58;;;;;;;22.83;13.82;;;10.10;90.80;;;;;;6341574;22;20010;-75
2023/01/14 03:56:33;;;;;;;24.08;15.02;;;10.10;91.00;;;;;;6341578;22;20353;-75
2023/01/14 03:59:09;;;;;;;22.17;13.77;;;10.10;91.20;;;;;;6369638;22;20430;-76
2023/01/14 04:01:48;;;;;;;24.70;13.95;;;10.10;91.10;;;;;;6369497;22;19998;-76
2023/01/14 04:04:15;;;;;;;28.77;13.70;;;10.10;90.70;;;;;;6341739;22;20438;-74
2023/01/14 04:06:41;;;;;;;22.48;12.98;;;10.10;91.10;;;;;;6341660;22;20042;-76
2023/01/14 04:09:08;;;;;;;22.27;13.60;;;10.10;91.00;;;;;;6369132;22;20010;-76
2023/01/14 04:11:35;;;;;;;27.13;13.98;;;10.10;91.00;;;;;;6369445;22;20013;-76
2023/01/14 04:16:45;;;;;;;27.45;13.90;;;10.00;91.00;;;;;;6369449;22;20031;-76
2023/01/14 04:19:11;;;;;;;23.77;12.98;;;10.00;91.10;;;;;;6369330;22;20048;-76
2023/01/14 04:21:36;;;;;;;25.13;12.70;;;10.10;91.20;;;;;;6342297;22;20068;-75
2023/01/14 04:24:02;;;;;;;28.30;13.30;;;10.10;91.10;;;;;;6341445;22;20002;-77
2023/01/14 04:26:28;;;;;;;19.95;13.13;;;10.00;91.10;;;;;;6369673;22;20021;-75
2023/01/14 04:28:54;;;;;;;24.92;13.77;;;10.00;91.20;;;;;;6341985;22;20311;-76
2023/01/14 04:31:21;;;;;;;27.17;14.23;;;9.90;91.70;;;;;;6369817;22;20006;-76
2023/01/14 04:33:47;;;;;;;23.88;13.75;;;9.90;91.70;;;;;;6341530;22;20022;-75
2023/01/14 04:38:48;;;;;;;31.67;15.48;;;9.90;91.40;;;;;;6282608;22;20027;-74
2023/01/14 04:43:59;;;;;;;23.13;14.23;;;9.80;91.50;;;;;;6337828;22;20014;-75
2023/01/14 04:46:24;;;;;;;22.83;14.40;;;9.80;91.80;;;;;;6337704;22;20031;-75
2023/01/14 04:48:50;;;;;;;24.23;14.75;;;9.80;91.70;;;;;;6337681;22;19995;-76
2023/01/14 04:51:16;;;;;;;22.42;14.05;;;9.80;91.80;;;;;;6337549;22;20309;-75
2023/01/14 04:53:41;;;;;;;26.08;15.20;;;9.80;91.80;;;;;;6310051;22;20018;-77
2023/01/14 04:56:08;;;;;;;25.65;14.50;;;9.80;91.90;;;;;;6337685;22;19994;-75
2023/01/14 04:58:33;;;;;;;23.13;14.55;;;9.80;91.80;;;;;;6338008;22;20078;-75
2023/01/14 05:01:00;;;;;;;22.10;14.00;;;9.80;91.80;;;;;;6337765;22;20076;-77
2023/01/14 05:03:26;;;;;;;21.83;14.57;;;9.80;91.90;;;;;;6337454;22;20387;-75
2023/01/14 05:05:51;;;;;;;21.40;13.80;;;9.80;91.80;;;;;;6337744;22;20048;-75
2023/01/14 05:08:18;;;;;;;27.48;15.38;;;9.80;91.80;;;;;;6338795;22;20003;-76
2023/01/14 05:10:46;;;;;;;20.75;15.02;;;9.80;91.90;;;;;;6339617;22;20044;-76
2023/01/14 05:13:12;;;;;;;30.67;16.27;;;9.70;91.80;;;;;;6339484;22;20011;-76
2023/01/14 05:15:40;;;;;;;24.15;14.93;;;9.70;91.90;;;;;;6339812;22;20024;-76
2023/01/14 05:18:07;;;;;;;28.17;14.50;;;9.70;92.10;;;;;;6339490;22;20018;-75
2023/01/14 05:20:34;;;;;;;27.10;14.43;;;9.70;92.10;;;;;;6339590;22;19998;-77
2023/01/14 05:23:01;;;;;;;23.80;14.48;;;9.70;91.90;;;;;;6339524;22;20493;-75
2023/01/14 05:25:29;;;;;;;27.05;15.00;;;9.70;92.30;;;;;;6339256;22;19995;-75
2023/01/14 05:28:01;;;;;;;24.05;15.02;;;9.60;92.00;;;;;;6339888;22;20328;-75
2023/01/14 05:30:28;;;;;;;18.53;11.17;;;9.60;91.40;;;;;;6339440;22;19999;-75
2023/01/14 05:32:54;;;;;;;25.10;14.68;;;9.60;91.80;;;;;;6339670;22;20089;-77
2023/01/14 05:35:20;;;;;;;25.27;15.25;;;9.60;92.00;;;;;;6339207;22;20048;-76
2023/01/14 05:37:45;;;;;;;25.80;14.77;;;9.70;92.00;;;;;;6338898;22;20014;-77
2023/01/14 05:40:11;;;;;;;25.75;15.02;;;9.70;92.00;;;;;;6339144;22;20011;-76
2023/01/14 05:48:05;;;;;;;;;;;9.70;91.70;;;;;;6339477;22;20056;-75
2023/01/14 05:50:32;;;;;;;24.77;14.13;;;9.70;92.30;;;;;;6338999;22;19903;-77
2023/01/14 05:52:57;;;;;;;26.50;14.70;;;9.70;92.10;;;;;;6339039;22;20372;-75
2023/01/14 05:55:23;;;;;;;26.42;14.90;;;9.60;91.90;;;;;;6338811;22;20002;-77
2023/01/14 05:57:49;;;;;;;23.65;15.15;;;9.60;92.00;;;;;;6339308;22;20302;-76
2023/01/14 06:08:29;;;;;;;;;;;9.60;91.60;;;;;;6339545;22;20017;-77
2023/01/14 06:10:54;;;;;;;23.45;14.05;;;9.50;92.30;;;;;;6339484;22;19905;-76
2023/01/14 06:13:23;;;;;;;28.58;15.57;;;9.50;92.10;;;;;;6350582;22;20006;-76
2023/01/14 06:15:55;;;;;;;25.63;14.82;;;9.50;92.10;;;;;;6356446;22;19995;-77
2023/01/14 06:18:22;;;;;;;26.02;15.15;;;9.50;92.10;;;;;;6358817;22;19998;-76
2023/01/14 06:20:53;;;;;;;23.65;14.60;;;9.50;92.20;;;;;;6339522;22;20005;-76
2023/01/14 06:23:20;;;;;;;23.15;15.38;;;9.50;92.30;;;;;;6339471;22;20073;-76
2023/01/14 06:25:47;;;;;;;24.42;14.85;;;9.40;92.30;;;;;;6339230;22;20003;-76
2023/01/14 06:28:15;;;;;;;27.25;16.88;;;9.40;92.10;;;;;;6311279;22;20145;-77
2023/01/14 06:30:41;;;;;;;24.50;17.25;;;9.30;92.30;;;;;;6311259;22;20003;-74
2023/01/14 06:33:07;;;;;;;29.23;17.50;;;9.30;92.30;;;;;;6338744;22;20006;-76
2023/01/14 06:35:34;;;;;;;27.15;16.20;;;9.30;92.30;;;;;;6338630;22;20009;-77
2023/01/14 06:38:00;;;;;;;23.65;16.25;;;9.30;92.30;;;;;;6338759;22;20017;-75
2023/01/14 06:40:26;;;;;;;25.55;16.27;;;9.30;92.50;;;;;;6338809;22;20002;-76
2023/01/14 06:42:55;;;;;;;25.52;16.65;;;9.30;92.20;;;;;;6338751;22;20013;-76
2023/01/14 06:45:22;;;;;;;24.60;16.23;;;9.30;92.30;;;;;;6338538;22;19999;-76
2023/01/14 06:47:48;;;;;;;24.38;16.23;;;9.30;92.20;;;;;;6338855;22;20374;-76
2023/01/14 06:50:17;;;;;;;23.48;14.95;;;9.30;92.20;;;;;;6338842;22;19995;-77
2023/01/14 06:52:43;;;;;;;23.40;15.50;;;9.30;92.10;;;;;;6339169;22;20010;-77
2023/01/14 06:55:08;;;;;;;26.88;15.93;;;9.30;92.20;;;;;;6338820;22;20310;-76
2023/01/14 06:57:34;;;;;;;24.55;15.73;;;9.30;92.00;;;;;;6338791;22;20061;-75
2023/01/14 07:00:00;;;;;;;22.88;16.05;;;9.30;92.00;;;;;;6338791;22;19999;-76
2023/01/14 07:02:25;;;;;;;25.58;16.42;;;9.30;92.10;;;;;;6338800;22;20011;-77
2023/01/14 07:04:51;;;;;;;28.52;16.25;;;9.40;92.20;;;;;;6338650;22;19995;-76
2023/01/14 07:07:17;;;;;;;25.40;15.48;;;9.50;92.10;;;;;;6338484;22;20448;-75
2023/01/14 07:09:43;;;;;;;22.45;14.85;;;9.50;92.00;;;;;;6338696;22;20006;-77
2023/01/14 07:12:08;;;;;;;25.60;15.43;;;9.60;91.90;;;;;;6338286;22;20003;-76
2023/01/14 07:14:34;;;;;;;22.35;14.32;;;9.60;91.80;;;;;;6337935;22;20466;-75
2023/01/14 07:17:04;;;;;;;26.55;14.52;;;9.70;91.90;;;;;;6338156;22;20037;-75
2023/01/14 07:19:29;;;;;;;21.88;14.18;;;9.80;91.70;;;;;;6338428;22;20381;-77
2023/01/14 07:21:55;;;;;;;24.00;14.38;;;9.90;91.70;;;;;;6338508;22;20003;-77
2023/01/14 07:24:21;;;;;;;21.15;14.43;;;9.90;91.70;;;;;;6338164;22;20420;-77
2023/01/14 07:26:46;;;;;;;22.42;14.65;;;10.00;91.20;;;;;;6338349;22;20074;-77
2023/01/14 07:29:12;;;;;;;25.70;15.02;;;10.10;91.20;;;;;;6337660;22;20331;-77
2023/01/14 07:31:38;;;;;;;21.23;14.05;;;10.10;90.90;;;;;;6337820;22;20057;-76
2023/01/14 07:34:04;;;;;;;24.85;14.73;;;10.20;90.90;;;;;;6338104;22;20007;-76
2023/01/14 07:36:29;;;;;;;25.13;15.50;;;10.20;90.70;;;;;;6310267;22;20440;-77
2023/01/14 07:38:55;;;;;;;28.58;15.65;;;10.30;90.70;;;;;;6338396;22;20027;-76
2023/01/14 07:41:22;;;;;;;23.80;15.80;;;10.30;90.60;;;;;;6338245;22;19999;-77
2023/01/14 07:43:48;;;;;;;28.73;15.43;;;10.30;90.50;;;;;;6337965;22;19994;-76
2023/01/14 07:46:15;;;;;;;25.45;15.13;;;10.40;90.60;;;;;;6337738;22;20034;-75
2023/01/14 07:48:42;;;;;;;23.65;14.88;;;10.50;90.60;;;;;;6338176;22;20413;-77
2023/01/14 07:51:09;;;;;;;21.60;15.52;;;10.60;90.50;;;;;;6338296;22;20512;-75
2023/01/14 07:53:35;;;;;;;23.60;15.98;;;10.60;90.40;;;;;;6337617;22;20018;-78
2023/01/14 07:56:02;;;;;;;20.45;14.52;;;10.60;90.20;;;;;;6337889;22;20306;-77
2023/01/14 07:58:28;;;;;;;21.27;14.45;;;10.60;90.20;;;;;;6338053;22;20013;-74
2023/01/14 08:00:54;;;;;;;23.65;15.43;;;10.60;90.10;;;;;;6338084;22;20069;-75
2023/01/14 08:03:20;;;;;;;21.67;14.85;;;10.60;90.10;;;;;;6337705;22;20006;-75
2023/01/14 08:05:46;;;;;;;25.75;14.77;;;10.60;90.20;;;;;;6337935;22;20355;-78
2023/01/14 08:08:12;;;;;;;21.30;14.52;;;10.70;90.10;;;;;;6337664;22;20003;-70
2023/01/14 08:10:38;;;;;;;20.80;15.07;;;10.70;90.00;;;;;;6337073;22;20006;-71
2023/01/14 08:13:04;;;;;;;20.85;14.65;;;10.70;89.90;;;;;;6338526;22;20321;-72
2023/01/14 08:15:30;;;;;;;23.40;14.45;;;10.70;90.00;;;;;;6310079;22;20002;-72
2023/01/14 08:17:56;;;;;;;27.30;15.00;;;10.70;89.80;;;;;;6337029;22;20456;-72
2023/01/14 08:20:22;;;;;;;26.65;14.60;;;10.70;90.00;;;;;;6338020;22;19995;-72
2023/01/14 08:22:58;;;;;;;20.58;13.75;;;10.70;90.00;;;;;;6339134;22;20738;-71
2023/01/14 08:25:24;;;;;;;25.75;14.63;;;10.80;90.00;;;;;;6310438;22;20350;-72
2023/01/14 08:27:50;;;;;;;23.42;14.60;;;10.80;90.00;;;;;;6309514;22;20447;-71
2023/01/14 08:30:16;;;;;;;23.85;13.63;;;10.80;89.50;;;;;;6309414;22;20009;-71
2023/01/14 08:32:42;;;;;;;31.15;14.82;;;10.90;89.40;;;;;;6336711;22;20007;-70
2023/01/14 08:35:08;;;;;;;22.27;14.10;;;10.90;89.60;;;;;;6336479;22;20005;-71
2023/01/14 08:37:33;;;;;;;20.80;14.13;;;10.90;89.60;;;;;;6336920;22;20030;-71
2023/01/14 08:39:59;;;;;;;22.00;14.85;;;10.90;89.40;;;;;;6336554;22;20014;-70
2023/01/14 08:42:25;;;;;;;23.42;13.57;;;10.90;89.10;;;;;;6337882;22;20003;-73
2023/01/14 08:44:50;;;;;;;22.52;14.73;;;10.90;89.10;;;;;;6338181;22;19995;-71
2023/01/14 08:47:16;;;;;;;29.98;16.65;;;10.90;89.10;;;;;;6337813;22;20005;-72
2023/01/14 08:49:42;;;;;;;27.42;15.40;;;11.00;89.30;;;;;;6338748;22;20006;-72
2023/01/14 08:52:08;;;;;;;25.35;15.73;;;11.00;89.00;;;;;;6339143;22;20002;-72
2023/01/14 08:54:34;;;;;;;26.08;14.63;;;11.10;89.30;;;;;;6339326;22;19999;-72
2023/01/14 08:57:00;;;;;;;22.15;14.45;;;11.10;88.90;;;;;;6339191;22;20044;-71
2023/01/14 08:59:26;;;;;;;20.23;14.15;;;11.10;89.00;;;;;;6338964;22;20094;-72
2023/01/14 09:01:52;;;;;;;23.85;15.23;;;11.20;89.00;;;;;;6338793;22;20002;-72
2023/01/14 09:04:18;;;;;;;24.90;14.32;;;11.30;89.00;;;;;;6338492;22;20006;-73
2023/01/14 09:17:41;;;;;;;23.80;13.27;;;11.40;87.50;;;;;;6338375;22;20017;-71
2023/01/14 09:20:17;;;;;;;23.15;12.98;;;11.40;88.20;;;;;;6337642;22;20006;-73
2023/01/14 09:22:45;;;;;;;23.48;11.77;;;11.50;88.60;;;;;;6337458;22;20052;-72
2023/01/14 09:25:11;;;;;;;21.13;13.50;;;11.50;88.10;;;;;;6337422;22;20006;-76
2023/01/14 09:27:36;;;;;;;25.50;14.50;;;11.60;87.90;;;;;;6336946;22;19994;-72
2023/01/14 09:30:03;;;;;;;26.75;12.40;;;11.60;87.70;;;;;;6337318;22;20079;-75
2023/01/14 09:32:36;;;;;;;20.30;11.82;;;11.70;87.40;;;;;;6337489;22;20038;-74
2023/01/14 09:35:02;;;;;;;21.85;11.95;;;11.80;87.80;;;;;;6337720;22;20072;-72
2023/01/14 09:37:27;;;;;;;23.20;11.52;;;11.90;87.20;;;;;;6337810;22;20007;-73
2023/01/14 09:39:53;;;;;;;20.17;11.32;;;12.00;87.10;;;;;;6337798;22;20022;-72
2023/01/14 09:42:32;;;;;;;16.77;11.07;;;12.10;87.00;;;;;;6310236;22;20002;-72
2023/01/14 09:45:29;;;;;;;21.23;11.40;;;12.20;86.90;;;;;;6337800;22;20049;-72
2023/01/14 09:47:58;;;;;;;20.02;10.70;;;12.20;86.00;;;;;;6310234;22;20006;-71
2023/01/14 09:50:29;;;;;;;22.83;12.07;;;12.20;86.20;;;;;;6337710;22;19998;-71
2023/01/14 09:53:10;;;;;;;20.52;11.30;;;12.30;85.50;;;;;;6309844;22;20018;-72
2023/01/14 09:56:16;;;;;;;17.58;11.15;;;12.30;85.40;;;;;;6338352;22;20371;-72
2023/01/14 09:58:57;;;;;;;16.58;9.80;;;12.40;85.30;;;;;;6200431;22;20067;-72
2023/01/14 10:01:35;;;;;;;22.48;9.35;;;12.50;85.90;;;;;;6337124;22;19999;-72
2023/01/14 10:04:01;;;;;;;21.88;10.10;;;12.60;85.00;;;;;;6337781;22;20026;-73
2023/01/14 10:06:27;;;;;;;21.55;9.90;;;12.70;85.10;;;;;;6337770;22;19999;-71
2023/01/14 10:09:01;;;;;;;14.90;8.98;;;12.80;85.20;;;;;;6337994;22;20011;-72
2023/01/14 10:11:29;;;;;;;17.40;8.73;;;12.90;85.00;;;;;;6338164;22;20006;-71
2023/01/14 10:14:06;;;;;;;21.73;9.85;;;12.90;84.50;;;;;;6338264;22;20007;-73
2023/01/14 10:16:46;;;;;;;14.07;9.18;;;13.00;84.60;;;;;;6311112;22;19995;-71
2023/01/14 10:19:35;;;;;;;13.88;8.20;;;13.10;83.70;;;;;;6338610;22;20026;-71
2023/01/14 10:22:02;;;;;;;19.42;9.70;;;13.20;83.40;;;;;;6310939;22;20014;-72
2023/01/14 10:24:29;;;;;;;16.23;8.48;;;13.20;83.60;;;;;;6338670;22;20085;-73
2023/01/14 10:26:55;;;;;;;16.08;9.07;;;13.30;83.40;;;;;;6339476;22;20029;-73
2023/01/14 10:29:24;;;;;;;17.83;8.27;;;13.40;83.30;;;;;;6339634;22;19999;-72
2023/01/14 10:31:58;;;;;;;15.95;7.72;;;13.50;83.10;;;;;;6339544;22;20053;-73
2023/01/14 10:34:38;;;;;;;20.23;7.88;;;13.50;82.40;;;;;;6338161;22;20011;-73
2023/01/14 10:37:05;;;;;;;20.75;8.18;;;13.60;81.80;;;;;;6338428;22;19994;-71
2023/01/14 10:39:31;;;;;;;17.88;7.47;;;13.70;81.90;;;;;;6338158;22;20022;-72
2023/01/14 10:42:00;;;;;;;13.88;7.55;;;13.70;81.90;;;;;;6338551;22;19999;-72
2023/01/14 10:44:34;;;;;;;17.38;7.93;;;13.80;81.40;;;;;;6338236;22;20371;-72
2023/01/14 10:47:08;;;;;;;15.85;6.88;;;13.90;80.70;;;;;;6338550;22;19999;-71
2023/01/14 10:49:33;;;;;;;15.95;7.40;;;13.90;80.50;;;;;;6339062;22;20069;-71
2023/01/14 10:51:59;;;;;;;16.65;7.00;;;14.00;80.60;;;;;;6338880;22;20041;-72
2023/01/14 10:54:27;;;;;;;16.77;7.20;;;14.10;80.30;;;;;;6338527;22;20003;-72
2023/01/14 10:57:15;;;;;;;14.30;6.57;;;14.10;80.00;;;;;;6338622;22;19995;-72
2023/01/14 10:59:50;;;;;;;15.60;7.13;;;14.10;80.00;;;;;;6310574;22;20488;-72
2023/01/14 11:02:53;;;;;;;18.73;7.05;;;14.20;79.30;;;;;;6339017;22;20436;-69
2023/01/14 11:05:24;;;;;;;16.45;6.28;;;14.20;79.90;;;;;;6330661;22;20427;-71
2023/01/14 11:07:52;;;;;;;17.77;6.07;;;14.20;79.10;;;;;;6340274;22;20366;-72
2023/01/14 11:10:29;;;;;;;18.42;6.57;;;14.20;78.80;;;;;;6341177;22;20003;-72
2023/01/14 11:13:13;;;;;;;17.30;6.57;;;14.30;78.50;;;;;;6339620;22;20021;-71
2023/01/14 11:15:41;;;;;;;12.05;6.10;;;14.30;78.60;;;;;;6338729;22;19998;-71
2023/01/14 11:18:18;;;;;;;12.57;6.25;;;14.40;78.50;;;;;;6338492;22;20014;-72
2023/01/14 11:21:04;;;;;;;15.50;6.05;;;14.50;79.00;;;;;;6338627;22;19999;-71
2023/01/14 11:23:45;;;;;;;18.13;6.75;;;14.60;78.70;;;;;;6286877;22;20003;-72
2023/01/14 11:26:21;;;;;;;11.18;6.28;;;14.70;78.40;;;;;;6338431;22;19999;-73
2023/01/14 11:28:49;;;;;;;14.73;6.18;;;14.80;78.20;;;;;;6338319;22;20068;-71
2023/01/14 11:31:25;;;;;;;17.45;6.43;;;14.80;77.70;;;;;;6338071;22;19999;-72
2023/01/14 11:33:52;;;;;;;12.70;5.07;;;15.00;77.60;;;;;;6338004;22;20086;-72
2023/01/14 11:36:23;;;;;;;14.15;5.20;;;15.10;77.20;;;;;;6337850;22;20073;-72
2023/01/14 11:38:50;;;;;;;14.63;5.25;;;15.20;76.80;;;;;;6337377;22;20083;-72
2023/01/14 11:41:32;;;;;;;11.32;3.92;;;15.20;76.20;;;;;;6337544;22;20006;-71
2023/01/14 11:44:10;;;;;;;12.52;4.55;;;15.30;75.80;;;;;;6337721;22;19999;-71
2023/01/14 11:46:41;;;;;;;15.20;4.28;;;15.30;75.30;;;;;;6337535;22;20069;-72
2023/01/14 11:49:17;;;;;;;11.95;4.38;;;15.40;75.40;;;;;;6337349;22;20035;-72
2023/01/14 11:52:03;;;;;;;11.50;4.32;;;15.50;75.30;;;;;;6337173;22;19999;-70
2023/01/14 11:54:37;;;;;;;13.13;4.97;;;15.60;74.90;;;;;;6337249;22;20440;-71
2023/01/14 11:57:04;;;;;;;;;;;15.60;73.90;;;;;;6338053;22;20005;-72
2023/01/14 11:59:37;;;;;;;10.95;4.40;;;15.70;73.60;;;;;;6337283;22;20229;-71
2023/01/14 12:02:20;;;;;;;10.65;3.78;;;15.80;74.50;;;;;;6337898;22;20002;-71
2023/01/14 12:04:59;;;;;;;11.75;3.95;;;15.90;73.70;;;;;;6337746;22;20013;-72
2023/01/14 12:07:59;;;;;;;19.13;4.88;;;15.90;73.20;;;;;;6309762;22;20048;-71
2023/01/14 12:10:32;;;;;;;12.63;3.67;;;16.00;72.30;;;;;;6337925;22;20440;-72
2023/01/14 12:16:50;;;;;;;7.55;3.00;;;16.10;71.30;;;;;;6337722;22;20014;-72
2023/01/14 12:19:42;;;;;;;11.40;5.03;;;16.10;70.00;;;;;;6337733;22;20006;-72
2023/01/14 12:22:23;;;;;;;13.13;3.78;;;16.20;70.40;;;;;;6330182;22;20060;-72
2023/01/14 12:25:03;;;;;;;10.30;2.88;;;16.30;70.10;;;;;;6309655;22;20010;-71
2023/01/14 12:27:51;;;;;;;11.60;3.58;;;16.30;69.30;;;;;;6309324;22;20038;-72
2023/01/14 12:30:25;;;;;;;9.63;3.30;;;16.30;68.50;;;;;;6336860;22;20009;-71
2023/01/14 12:33:02;;;;;;;10.52;3.38;;;16.30;68.60;;;;;;6337356;22;20015;-72
2023/01/14 12:35:33;;;;;;;9.65;3.00;;;16.40;68.50;;;;;;6309333;22;20044;-71
2023/01/14 12:38:04;;;;;;;9.63;3.08;;;16.40;66.90;;;;;;6336795;22;20007;-72
2023/01/14 12:46:13;;;;;;;10.13;2.65;;;16.60;66.00;;;;;;6337395;22;20049;-71
2023/01/14 12:48:40;;;;;;;13.60;3.47;;;16.60;65.50;;;;;;6337356;22;20074;-71
2023/01/14 12:51:17;;;;;;;8.63;3.28;;;16.60;65.00;;;;;;6337629;22;20002;-72
2023/01/14 12:53:51;;;;;;;8.50;3.30;;;16.60;65.00;;;;;;6309565;22;20019;-71
2023/01/14 12:56:27;;;;;;;8.32;3.03;;;16.60;65.00;;;;;;6337023;22;20332;-72
2023/01/14 12:58:59;;;;;;;8.63;3.05;;;16.70;64.10;;;;;;6337259;22;20046;-72
2023/01/14 13:01:30;;;;;;;8.95;2.72;;;16.70;63.90;;;;;;6337383;22;20066;-73
2023/01/14 13:04:03;;;;;;;7.90;2.30;;;16.60;62.90;;;;;;6336902;22;20006;-71
2023/01/14 13:06:37;;;;;;;7.78;2.53;;;16.60;61.50;;;;;;6335808;22;20003;-71
2023/01/14 13:09:06;;;;;;;6.93;2.63;;;16.60;60.70;;;;;;6336862;22;20041;-71
2023/01/14 13:11:47;;;;;;;9.50;2.88;;;16.50;61.00;;;;;;6337146;22;20777;-70
2023/01/14 13:14:37;;;;;;;8.00;3.00;;;16.60;59.90;;;;;;6336965;22;20023;-72
2023/01/14 13:17:05;;;;;;;5.40;2.50;;;16.60;60.50;;;;;;6337018;22;20037;-70
2023/01/14 13:19:33;;;;;;;8.80;3.13;;;16.70;60.10;;;;;;6336456;22;19999;-70
2023/01/14 13:22:08;;;;;;;6.15;2.17;;;16.70;59.60;;;;;;6336497;22;20432;-71
2023/01/14 13:24:37;;;;;;;6.50;2.40;;;16.70;59.50;;;;;;6336884;22;20005;-70
2023/01/14 13:27:30;;;;;;;5.88;2.60;;;16.80;59.20;;;;;;6336423;22;20075;-71
2023/01/14 13:30:18;;;;;;;8.15;3.05;;;16.70;58.60;;;;;;6310654;22;20003;-71
2023/01/14 13:33:02;;;;;;;5.63;2.28;;;16.80;58.70;;;;;;6337854;22;20048;-72
2023/01/14 13:35:30;;;;;;;6.35;2.70;;;16.80;58.60;;;;;;6337549;22;20070;-72
2023/01/14 13:38:14;;;;;;;7.20;2.85;;;16.80;58.90;;;;;;6338098;22;20003;-71
2023/01/14 13:40:53;;;;;;;9.02;2.92;;;16.90;57.90;;;;;;6336265;22;20417;-73
2023/01/14 13:43:23;;;;;;;9.63;2.88;;;16.90;57.90;;;;;;6338031;22;20006;-70
2023/01/14 13:46:00;;;;;;;5.32;2.45;;;17.00;58.30;;;;;;6337789;22;20014;-71
2023/01/14 13:48:35;;;;;;;6.55;2.63;;;17.00;57.30;;;;;;6338018;22;20060;-71
2023/01/14 13:51:25;;;;;;;6.47;2.90;;;17.00;57.40;;;;;;6337951;22;19999;-74
2023/01/14 13:54:03;;;;;;;7.03;2.40;;;17.00;57.90;;;;;;6338048;22;20007;-72
2023/01/14 13:56:30;;;;;;;7.20;2.55;;;17.10;56.30;;;;;;6337209;22;20320;-73
2023/01/14 13:58:59;;;;;;;8.57;2.72;;;17.00;54.80;;;;;;6338661;22;20007;-72
2023/01/14 14:01:31;;;;;;;13.13;2.97;;;16.90;55.10;;;;;;6338537;22;20026;-72
2023/01/14 14:03:58;;;;;;;9.68;2.83;;;16.90;55.10;;;;;;6338079;22;20025;-72
2023/01/14 14:06:24;;;;;;;9.70;2.80;;;17.00;55.50;;;;;;6338151;22;19998;-70
2023/01/14 14:09:17;;;;;;;10.02;3.40;;;17.10;55.10;;;;;;6338195;22;20006;-76
2023/01/14 14:11:51;;;;;;;8.38;2.47;;;17.20;55.00;;;;;;6338330;22;20082;-75
2023/01/14 14:14:50;;;;;;;9.00;2.30;;;17.20;54.40;;;;;;6338146;22;20011;-72
2023/01/14 14:17:30;;;;;;;8.23;2.47;;;17.10;54.60;;;;;;6300705;22;20032;-72
2023/01/14 14:19:57;;;;;;;8.10;2.63;;;17.30;53.20;;;;;;6338657;22;20069;-74
2023/01/14 14:22:28;;;;;;;8.98;2.65;;;17.30;54.60;;;;;;6338002;22;20324;-77
2023/01/14 14:24:56;;;;;;;7.88;2.35;;;17.20;53.00;;;;;;6337781;22;20074;-77
2023/01/14 14:27:40;;;;;;;6.75;2.92;;;17.10;53.70;;;;;;6337907;22;20010;-77
2023/01/14 14:30:10;;;;;;;7.65;2.83;;;17.00;54.20;;;;;;6337693;22;20029;-78